createdAt,value
2019-04-30T00:01:01.924Z,94459.03
2019-04-30T00:03:50.490Z,94433.05
2019-04-30T00:06:27.319Z,94465.56
2019-04-30T00:08:55.440Z,94475.73
2019-04-30T00:11:27.328Z,94505.61
2019-04-30T00:13:58.953Z,94501.19
2019-04-30T00:16:31.120Z,94502.19
2019-04-30T00:19:01.418Z,94459.14
2019-04-30T00:21:31.769Z,94442.11
2019-04-30T00:24:10.269Z,94459.64
2019-04-30T00:26:39.826Z,94489.02
2019-04-30T00:29:19.203Z,94494.05
2019-04-30T00:31:47.066Z,94537.59
2019-04-30T00:34:18.297Z,94529.75
2019-04-30T00:36:48.600Z,94598.82
2019-04-30T00:39:18.953Z,94643.83
2019-04-30T00:41:49.499Z,94659.45
2019-04-30T00:44:23.846Z,94661.88
2019-04-30T00:46:52.893Z,94679.59
2019-04-30T00:49:26.619Z,94657.31
2019-04-30T00:51:58.112Z,94659.13
2019-04-30T00:54:30.853Z,94653.59
2019-04-30T00:57:05.517Z,94652.78
2019-04-30T00:59:35.043Z,94608.39
2019-04-30T01:02:19.999Z,94591.88
2019-04-30T01:04:52.520Z,94583.92
2019-04-30T01:07:23.193Z,94595.40
2019-04-30T01:09:55.227Z,94612.31
2019-04-30T01:12:29.681Z,94631.33
2019-04-30T01:17:38.260Z,94727.16
2019-04-30T01:20:09.722Z,94763.04
2019-04-30T01:22:41.432Z,94768.88
2019-04-30T01:25:13.598Z,94766.77
2019-04-30T01:27:49.114Z,94757.97
2019-04-30T01:30:22.770Z,94775.53
2019-04-30T01:32:56.878Z,94778.96
2019-04-30T01:35:28.285Z,94774.92
2019-04-30T01:37:56.902Z,94799.31
2019-04-30T01:40:31.072Z,94869.30
2019-04-30T01:43:01.842Z,94844.56
2019-04-30T01:45:32.176Z,94836.60
2019-04-30T01:48:08.951Z,94815.44
2019-04-30T01:50:42.245Z,94797.70
2019-04-30T01:53:13.376Z,94813.02
2019-04-30T01:56:01.755Z,94807.16
2019-04-30T01:58:43.072Z,94785.81
2019-04-30T02:01:18.999Z,94768.58
2019-04-30T02:03:49.392Z,94757.66
2019-04-30T02:06:19.856Z,94732.28
2019-04-30T02:08:50.188Z,94714.05
2019-04-30T02:11:20.865Z,94704.98
2019-04-30T02:13:51.238Z,94713.74
2019-04-30T02:16:21.969Z,94756.97
2019-04-30T02:18:52.710Z,94766.46
2019-04-30T02:21:23.054Z,94796.89
2019-04-30T02:23:53.466Z,94823.40
2019-04-30T02:26:23.809Z,94752.73
2019-04-30T02:28:54.159Z,94686.75
2019-04-30T02:31:26.891Z,94636.87
2019-04-30T02:34:05.093Z,94654.59
2019-04-30T02:36:42.780Z,94627.30
2019-04-30T02:39:13.113Z,94612.00
2019-04-30T02:41:45.516Z,94608.08
2019-04-30T02:44:19.556Z,94676.38
2019-04-30T02:46:52.173Z,94680.91
2019-04-30T02:49:24.383Z,94690.37
2019-04-30T02:51:59.410Z,94698.63
2019-04-30T02:54:30.995Z,94758.78
2019-04-30T02:57:13.190Z,94686.95
2019-04-30T03:00:01.672Z,94706.28
2019-04-30T03:02:39.170Z,94714.74
2019-04-30T03:05:12.894Z,94665.66
2019-04-30T03:07:42.753Z,94605.86
2019-04-30T03:10:15.193Z,94569.93
2019-04-30T03:12:46.409Z,94601.94
2019-04-30T03:15:19.502Z,94581.80
2019-04-30T03:18:09.920Z,94574.97
2019-04-30T03:20:51.310Z,94582.81
2019-04-30T03:23:21.702Z,94564.59
2019-04-30T03:25:52.198Z,94539.41
2019-04-30T03:28:22.472Z,94526.73
2019-04-30T03:30:57.846Z,94541.52
2019-04-30T03:33:27.085Z,94570.44
2019-04-30T03:36:01.857Z,94641.41
2019-04-30T03:38:30.099Z,94670.84
2019-04-30T03:41:00.653Z,94703.06
2019-04-30T03:43:31.036Z,94747.59
2019-04-30T03:46:02.690Z,94818.25
2019-04-30T03:48:34.418Z,94881.39
2019-04-30T03:51:05.067Z,94964.20
2019-04-30T03:53:35.680Z,95067.98
2019-04-30T03:56:05.985Z,95147.08
2019-04-30T03:58:43.222Z,95221.77
2019-04-30T04:01:30.657Z,95257.14
2019-04-30T04:04:26.076Z,95287.51
2019-04-30T04:07:05.557Z,95330.96
2019-04-30T04:09:41.697Z,95361.30
2019-04-30T04:12:21.213Z,95395.78
2019-04-30T04:14:51.605Z,95416.36
2019-04-30T04:17:26.539Z,95446.72
2019-04-30T04:19:59.585Z,95488.41
2019-04-30T04:22:36.489Z,95539.06
2019-04-30T04:25:10.102Z,95601.84
2019-04-30T04:27:41.841Z,95686.25
2019-04-30T04:30:12.290Z,95766.58
2019-04-30T04:32:43.129Z,95854.53
2019-04-30T04:35:13.435Z,95874.64
2019-04-30T04:37:43.736Z,95910.53
2019-04-30T04:40:14.494Z,95992.80
2019-04-30T04:42:45.291Z,96047.25
2019-04-30T04:45:15.615Z,96050.70
2019-04-30T04:47:50.534Z,96085.31
2019-04-30T04:50:21.498Z,96090.52
2019-04-30T04:52:51.801Z,96122.20
2019-04-30T04:55:23.506Z,96183.23
2019-04-30T04:57:55.673Z,96242.80
2019-04-30T05:00:26.479Z,96336.41
2019-04-30T05:03:19.993Z,96434.14
2019-04-30T05:05:59.986Z,96662.64
2019-04-30T05:08:31.180Z,96774.45
2019-04-30T05:11:01.851Z,96892.59
2019-04-30T05:13:34.688Z,97013.95
2019-04-30T05:16:04.856Z,97135.39
2019-04-30T05:18:35.505Z,97270.13
2019-04-30T05:21:06.343Z,97380.56
2019-04-30T05:23:36.771Z,97477.29
2019-04-30T05:26:11.029Z,97545.28
2019-04-30T05:28:42.023Z,97604.52
2019-04-30T05:31:12.573Z,97686.16
2019-04-30T05:33:43.643Z,97763.86
2019-04-30T05:36:14.010Z,97914.19
2019-04-30T05:38:44.321Z,98146.55
2019-04-30T05:41:14.589Z,98628.36
2019-04-30T05:43:44.949Z,99027.48
2019-04-30T05:46:15.515Z,99650.30
2019-04-30T05:48:49.494Z,99894.36
2019-04-30T05:51:21.284Z,100021.05
2019-04-30T05:53:52.302Z,100336.13
2019-04-30T05:56:22.860Z,100604.94
2019-04-30T05:58:53.946Z,100767.36
2019-04-30T06:01:29.359Z,100794.64
2019-04-30T06:03:59.570Z,101062.09
2019-04-30T06:06:29.967Z,101367.40
2019-04-30T06:09:14.460Z,101464.50
2019-04-30T06:12:13.711Z,101781.41
2019-04-30T06:14:49.910Z,101712.58
2019-04-30T06:17:20.698Z,101870.20
2019-04-30T06:19:51.459Z,101999.81
2019-04-30T06:22:23.306Z,102164.30
2019-04-30T06:24:53.645Z,102267.67
2019-04-30T06:27:26.135Z,101886.19
2019-04-30T06:29:59.896Z,102136.97
2019-04-30T06:32:35.392Z,102526.56
2019-04-30T06:35:05.586Z,102562.58
2019-04-30T06:37:36.272Z,102283.19
2019-04-30T06:40:09.440Z,102159.80
2019-04-30T06:42:41.112Z,102110.91
2019-04-30T06:45:11.822Z,102115.31
2019-04-30T06:47:46.174Z,102445.28
2019-04-30T06:50:19.358Z,102737.30
2019-04-30T06:52:56.806Z,102990.02
2019-04-30T06:55:26.076Z,102735.72
2019-04-30T06:58:11.490Z,102552.29
2019-04-30T07:00:39.625Z,102768.20
2019-04-30T07:03:12.009Z,102718.88
2019-04-30T07:05:42.355Z,103012.59
2019-04-30T07:08:39.499Z,103208.54
2019-04-30T07:11:21.734Z,103355.99
2019-04-30T07:13:52.726Z,103545.41
2019-04-30T07:16:23.507Z,103593.22
2019-04-30T07:18:53.850Z,103585.05
2019-04-30T07:21:24.163Z,103556.28
2019-04-30T07:23:54.495Z,103486.75
2019-04-30T07:26:25.561Z,103761.02
2019-04-30T07:28:59.802Z,103428.34
2019-04-30T07:31:30.153Z,103675.19
2019-04-30T07:34:00.441Z,103821.11
2019-04-30T07:36:45.178Z,103834.84
2019-04-30T07:39:09.825Z,103837.10
2019-04-30T07:41:40.713Z,104289.03
2019-04-30T07:44:29.424Z,104572.83
2019-04-30T07:46:45.198Z,104463.92
2019-04-30T07:49:15.231Z,103853.92
2019-04-30T07:51:51.167Z,103561.70
2019-04-30T07:54:20.410Z,103165.52
2019-04-30T07:56:53.862Z,102981.12
2019-04-30T07:59:26.050Z,102773.34
2019-04-30T08:02:07.651Z,102445.50
2019-04-30T08:05:04.415Z,102429.39
2019-04-30T08:07:35.971Z,102630.77
2019-04-30T08:10:08.767Z,102890.23
2019-04-30T08:12:44.071Z,102982.24
2019-04-30T08:15:16.005Z,103466.59
2019-04-30T08:17:46.327Z,103715.86
2019-04-30T08:20:19.667Z,103844.38
2019-04-30T08:22:50.486Z,103949.01
2019-04-30T08:25:22.008Z,104071.86
2019-04-30T08:27:52.845Z,104319.34
2019-04-30T08:30:26.634Z,104346.62
2019-04-30T08:32:59.560Z,104368.83
2019-04-30T08:35:31.383Z,104091.80
2019-04-30T08:38:10.749Z,104220.98
2019-04-30T08:40:53.249Z,104047.59
2019-04-30T08:43:15.972Z,104185.03
2019-04-30T08:45:46.354Z,104642.69
2019-04-30T08:48:18.848Z,105321.45
2019-04-30T08:50:51.398Z,105668.82
2019-04-30T08:53:29.295Z,105890.87
2019-04-30T08:55:59.878Z,106179.39
2019-04-30T08:58:54.793Z,106391.06
2019-04-30T09:01:34.520Z,105942.94
2019-04-30T09:04:07.587Z,106072.39
2019-04-30T09:06:38.926Z,105789.86
2019-04-30T09:09:14.822Z,105826.03
2019-04-30T09:11:52.906Z,105826.03
2019-04-30T09:14:18.706Z,106563.81
2019-04-30T09:16:51.299Z,106036.20
2019-04-30T09:19:21.842Z,105241.59
2019-04-30T09:21:52.134Z,104407.23
2019-04-30T09:24:30.701Z,103853.04
2019-04-30T09:26:59.320Z,103486.52
2019-04-30T09:29:30.809Z,104315.52
2019-04-30T09:32:01.472Z,104476.27
2019-04-30T09:34:31.997Z,104910.67
2019-04-30T09:37:02.432Z,105862.91
2019-04-30T09:39:32.754Z,105882.90
2019-04-30T09:42:03.108Z,105902.09
2019-04-30T09:44:33.437Z,106105.59
2019-04-30T09:47:03.726Z,106163.22
2019-04-30T09:49:36.365Z,105868.67
2019-04-30T09:52:09.350Z,105909.86
2019-04-30T09:54:44.926Z,105827.64
2019-04-30T09:57:15.403Z,105001.16
2019-04-30T09:59:49.751Z,104239.58
2019-04-30T10:02:20.226Z,103418.83
2019-04-30T10:04:50.863Z,102895.91
2019-04-30T10:07:21.924Z,102230.70
2019-04-30T10:09:52.344Z,101793.58
2019-04-30T10:12:24.680Z,101607.65
2019-04-30T10:14:55.328Z,101461.34
2019-04-30T10:17:39.351Z,101419.42
2019-04-30T10:20:12.337Z,101604.69
2019-04-30T10:22:42.647Z,101689.40
2019-04-30T10:25:13.404Z,101843.06
2019-04-30T10:27:45.325Z,102074.25
2019-04-30T10:30:19.245Z,102823.53
2019-04-30T10:32:50.074Z,104068.62
2019-04-30T10:35:24.056Z,104629.11
2019-04-30T10:37:54.843Z,105271.44
2019-04-30T10:40:25.192Z,105303.97
2019-04-30T10:42:55.982Z,104449.81
2019-04-30T10:45:28.809Z,103575.81
2019-04-30T10:47:59.333Z,102958.00
2019-04-30T10:50:40.909Z,102863.16
2019-04-30T10:53:12.475Z,102304.95
2019-04-30T10:55:42.923Z,101830.91
2019-04-30T10:58:15.394Z,101471.99
2019-04-30T11:00:46.014Z,101138.44
2019-04-30T11:03:20.766Z,100796.11
2019-04-30T11:05:50.053Z,100184.61
2019-04-30T11:08:20.709Z,99507.30
2019-04-30T11:10:51.295Z,99183.52
2019-04-30T11:13:21.627Z,98986.78
2019-04-30T11:15:52.526Z,98934.73
2019-04-30T11:18:23.091Z,98719.98
2019-04-30T11:20:55.235Z,98461.86
2019-04-30T11:23:26.188Z,98334.47
2019-04-30T11:25:57.079Z,98226.10
2019-04-30T11:28:28.197Z,98208.67
2019-04-30T11:31:18.255Z,98261.98
2019-04-30T11:33:49.096Z,98337.13
2019-04-30T11:36:20.271Z,98406.31
2019-04-30T11:38:50.610Z,98370.70
2019-04-30T11:41:30.001Z,98411.96
2019-04-30T11:43:54.414Z,98424.09
2019-04-30T11:47:09.903Z,98450.70
2019-04-30T11:49:40.245Z,98442.89
2019-04-30T11:52:12.671Z,98367.04
2019-04-30T11:54:51.647Z,98361.39
2019-04-30T11:57:18.609Z,98448.88
2019-04-30T11:59:48.728Z,98502.14
2019-04-30T12:02:29.247Z,98550.76
2019-04-30T12:04:59.387Z,98671.15
2019-04-30T12:07:48.315Z,98823.67
2019-04-30T12:10:44.377Z,98917.41
2019-04-30T12:13:25.139Z,99067.64
2019-04-30T12:16:01.734Z,98988.13
2019-04-30T12:18:32.083Z,98959.77
2019-04-30T12:21:02.463Z,98876.68
2019-04-30T12:23:32.977Z,98794.66
2019-04-30T12:26:03.314Z,98761.30
2019-04-30T12:28:35.962Z,98717.66
2019-04-30T12:31:13.577Z,98599.89
2019-04-30T12:33:44.052Z,98529.76
2019-04-30T12:36:14.654Z,98485.00
2019-04-30T12:38:45.142Z,98428.92
2019-04-30T12:41:20.247Z,98383.03
2019-04-30T12:43:50.746Z,98390.34
2019-04-30T12:46:22.046Z,98495.66
2019-04-30T12:49:11.303Z,98594.73
2019-04-30T12:51:50.524Z,98720.66
2019-04-30T12:54:32.548Z,98640.84
2019-04-30T12:57:23.554Z,98746.64
2019-04-30T12:59:53.846Z,98928.75
2019-04-30T13:02:26.263Z,99113.58
2019-04-30T13:05:00.258Z,99270.48
2019-04-30T13:07:31.409Z,99353.92
2019-04-30T13:10:03.398Z,99357.08
2019-04-30T13:12:36.671Z,99283.84
2019-04-30T13:15:09.275Z,99283.84
2019-04-30T13:17:40.486Z,99625.09
2019-04-30T13:20:18.550Z,99849.22
2019-04-30T13:22:44.392Z,99903.24
2019-04-30T13:25:29.538Z,99603.49
2019-04-30T13:27:54.222Z,99446.94
2019-04-30T13:30:26.391Z,99334.65
2019-04-30T13:33:09.430Z,99372.47
2019-04-30T13:35:42.417Z,99503.66
2019-04-30T13:38:25.150Z,99619.56
2019-04-30T13:41:08.855Z,99507.17
2019-04-30T13:43:59.841Z,99573.69
2019-04-30T13:46:30.265Z,99539.47
2019-04-30T13:49:01.375Z,99589.42
2019-04-30T13:51:31.700Z,99510.84
2019-04-30T13:54:08.010Z,99640.31
2019-04-30T13:56:39.682Z,100008.67
2019-04-30T13:59:10.068Z,100447.78
2019-04-30T14:01:40.338Z,100974.72
2019-04-30T14:04:37.625Z,101483.60
2019-04-30T14:07:47.271Z,101686.36
2019-04-30T14:10:19.445Z,101813.84
2019-04-30T14:12:56.639Z,102203.33
2019-04-30T14:15:34.821Z,102117.45
2019-04-30T14:18:05.143Z,102007.75
2019-04-30T14:20:55.718Z,101809.87
2019-04-30T14:23:26.077Z,102091.62
2019-04-30T14:26:00.935Z,102263.13
2019-04-30T14:28:31.093Z,102855.58
2019-04-30T14:31:04.101Z,102587.88
2019-04-30T14:33:34.457Z,102918.12
2019-04-30T14:36:05.701Z,102625.88
2019-04-30T14:38:36.306Z,102390.05
2019-04-30T14:41:07.753Z,102025.90
2019-04-30T14:43:45.639Z,101989.26
2019-04-30T14:46:31.437Z,101796.48
2019-04-30T14:49:22.338Z,101462.69
2019-04-30T14:51:54.555Z,101699.34
2019-04-30T14:54:50.492Z,101481.13
2019-04-30T14:57:38.336Z,101752.08
2019-04-30T15:00:32.078Z,101765.30
2019-04-30T15:03:09.504Z,101996.59
2019-04-30T15:05:48.516Z,102364.30
2019-04-30T15:08:16.836Z,101997.38
2019-04-30T15:10:47.402Z,101820.86
2019-04-30T15:13:19.490Z,101514.80
2019-04-30T15:15:50.710Z,101537.50
2019-04-30T15:18:21.012Z,101446.09
2019-04-30T15:20:51.328Z,101184.93
2019-04-30T15:23:39.919Z,101310.09
2019-04-30T15:26:22.226Z,101051.38
2019-04-30T15:28:45.730Z,101064.13
2019-04-30T15:31:22.156Z,100972.47
2019-04-30T15:34:02.982Z,101065.33
2019-04-30T15:36:33.188Z,101081.54
2019-04-30T15:39:40.553Z,100992.21
2019-04-30T15:42:14.741Z,101113.81
2019-04-30T15:44:49.647Z,101169.91
2019-04-30T15:47:21.264Z,101253.09
2019-04-30T15:49:53.089Z,101189.67
2019-04-30T15:52:23.381Z,101044.86
2019-04-30T15:54:53.645Z,101000.48
2019-04-30T15:57:24.021Z,100796.78
2019-04-30T15:59:54.375Z,100875.92
2019-04-30T16:02:34.995Z,100783.14
2019-04-30T16:05:23.940Z,100838.76
2019-04-30T16:08:25.777Z,100641.57
2019-04-30T16:11:21.750Z,100569.63
2019-04-30T16:14:11.095Z,100496.70
2019-04-30T16:16:44.058Z,100621.38
2019-04-30T16:19:14.355Z,100599.45
2019-04-30T16:21:44.885Z,100502.42
2019-04-30T16:24:15.540Z,100405.84
2019-04-30T16:26:52.069Z,100228.91
2019-04-30T16:29:20.475Z,100151.77
2019-04-30T16:31:51.114Z,100177.49
2019-04-30T16:34:21.493Z,100157.47
2019-04-30T16:36:52.950Z,100111.29
2019-04-30T16:39:23.433Z,100013.34
2019-04-30T16:41:54.519Z,99828.94
2019-04-30T16:44:25.349Z,99775.97
2019-04-30T16:47:13.026Z,99730.39
2019-04-30T16:49:34.153Z,99681.43
2019-04-30T16:52:04.492Z,99555.11
2019-04-30T16:54:36.628Z,99487.47
2019-04-30T16:57:11.635Z,99432.61
2019-04-30T16:59:42.625Z,99374.55
2019-04-30T17:02:17.016Z,99247.64
2019-04-30T17:04:59.438Z,99164.42
2019-04-30T17:07:30.549Z,99221.09
2019-04-30T17:10:29.392Z,99138.38
2019-04-30T17:13:31.484Z,99164.42
2019-04-30T17:16:14.481Z,99153.08
2019-04-30T17:18:45.104Z,99099.45
2019-04-30T17:21:15.438Z,99031.98
2019-04-30T17:23:45.723Z,98911.00
2019-04-30T17:26:16.124Z,98895.67
2019-04-30T17:28:49.889Z,98844.28
2019-04-30T17:31:20.487Z,98748.09
2019-04-30T17:33:50.811Z,98659.99
2019-04-30T17:36:22.425Z,98646.67
2019-04-30T17:38:53.703Z,98667.31
2019-04-30T17:41:24.300Z,98612.01
2019-04-30T17:43:55.074Z,98589.17
2019-04-30T17:46:28.515Z,98608.64
2019-04-30T17:48:59.367Z,98564.88
2019-04-30T17:51:29.935Z,98528.27
2019-04-30T17:54:16.171Z,98442.06
2019-04-30T17:56:46.562Z,98433.59
2019-04-30T17:59:16.853Z,98381.34
2019-04-30T18:01:53.232Z,98346.77
2019-04-30T18:04:23.691Z,98268.48
2019-04-30T18:06:54.007Z,98229.61
2019-04-30T18:09:29.710Z,98155.19
2019-04-30T18:12:04.643Z,98066.69
2019-04-30T18:14:36.988Z,98031.35
2019-04-30T18:17:09.293Z,97977.55
2019-04-30T18:19:49.736Z,97892.83
2019-04-30T18:22:39.993Z,97754.25
2019-04-30T18:25:35.506Z,97697.29
2019-04-30T18:28:05.859Z,97664.14
2019-04-30T18:30:40.702Z,97600.27
2019-04-30T18:33:11.463Z,97546.63
2019-04-30T18:35:48.543Z,97467.27
2019-04-30T18:38:20.963Z,97448.70
2019-04-30T18:40:51.772Z,97406.72
2019-04-30T18:43:22.518Z,97354.83
2019-04-30T18:45:52.902Z,97277.52
2019-04-30T18:48:26.523Z,97311.16
2019-04-30T18:50:57.012Z,97247.09
2019-04-30T18:53:31.423Z,97206.27
2019-04-30T18:56:04.609Z,97110.20
2019-04-30T18:58:39.991Z,97077.70
2019-04-30T19:01:09.230Z,97026.23
2019-04-30T19:03:45.093Z,96959.59
2019-04-30T19:06:26.252Z,96941.81
2019-04-30T19:09:03.009Z,96923.84
2019-04-30T19:12:02.653Z,96836.33
2019-04-30T19:14:51.135Z,96800.39
2019-04-30T19:17:43.198Z,96746.23
2019-04-30T19:20:20.327Z,96727.96
2019-04-30T19:22:52.334Z,96718.27
2019-04-30T19:25:22.899Z,96639.41
2019-04-30T19:27:53.163Z,96577.53
2019-04-30T19:30:26.434Z,96574.26
2019-04-30T19:32:58.851Z,96578.86
2019-04-30T19:35:29.610Z,96525.58
2019-04-30T19:38:02.743Z,96534.13
2019-04-30T19:40:39.193Z,96478.39
2019-04-30T19:43:16.675Z,96445.69
2019-04-30T19:45:49.024Z,96376.95
2019-04-30T19:48:20.822Z,96351.31
2019-04-30T19:50:51.240Z,96310.11
2019-04-30T19:53:22.425Z,96273.83
2019-04-30T19:55:55.666Z,96229.51
2019-04-30T19:58:43.628Z,96204.91
2019-04-30T20:00:59.499Z,96187.17
2019-04-30T20:03:34.799Z,96199.00
2019-04-30T20:06:05.250Z,96230.51
2019-04-30T20:08:39.653Z,96206.22
2019-04-30T20:11:10.066Z,96155.66
2019-04-30T20:13:40.558Z,96131.08
2019-04-30T20:16:14.071Z,96073.64
2019-04-30T20:18:44.507Z,96029.70
2019-04-30T20:21:26.282Z,96001.86
2019-04-30T20:23:50.040Z,96025.80
2019-04-30T20:26:24.402Z,95999.22
2019-04-30T20:28:54.657Z,95964.16
2019-04-30T20:31:24.979Z,95923.17
2019-04-30T20:34:01.422Z,95881.58
2019-04-30T20:36:31.471Z,95864.38
2019-04-30T20:39:19.202Z,95867.64
2019-04-30T20:41:53.755Z,95863.56
2019-04-30T20:44:24.340Z,95851.42
2019-04-30T20:46:54.708Z,95823.61
2019-04-30T20:49:24.980Z,95797.44
2019-04-30T20:51:58.852Z,95792.17
2019-04-30T20:54:29.306Z,95778.28
2019-04-30T20:56:59.720Z,95720.48
2019-04-30T20:59:31.867Z,95707.40
2019-04-30T21:02:02.233Z,95687.81
2019-04-30T21:04:36.022Z,95699.89
2019-04-30T21:07:06.899Z,95707.09
2019-04-30T21:09:37.299Z,95731.62
2019-04-30T21:12:08.978Z,95702.83
2019-04-30T21:14:40.642Z,95741.44
2019-04-30T21:17:13.050Z,95731.30
2019-04-30T21:19:43.612Z,95741.44
2019-04-30T21:22:15.900Z,95731.30
2019-04-30T21:24:46.312Z,95738.81
2019-04-30T21:27:18.463Z,95768.61
2019-04-30T21:29:49.367Z,95746.33
2019-04-30T21:32:38.760Z,95754.52
2019-04-30T21:35:26.779Z,95690.75
2019-04-30T21:37:59.024Z,95657.19
2019-04-30T21:40:29.874Z,95628.23
2019-04-30T21:43:00.217Z,95652.94
2019-04-30T21:45:31.559Z,95616.97
2019-04-30T21:48:04.401Z,95566.14
2019-04-30T21:50:39.692Z,95535.23
2019-04-30T21:53:10.322Z,95525.60
2019-04-30T21:55:46.090Z,95521.16
2019-04-30T21:58:20.495Z,95463.36
2019-04-30T22:01:10.823Z,95435.09
2019-04-30T22:03:41.860Z,95406.67
2019-04-30T22:06:12.179Z,95352.94
2019-04-30T22:08:43.295Z,95325.03
2019-04-30T22:11:13.689Z,95360.95
2019-04-30T22:13:44.009Z,95362.27
2019-04-30T22:16:14.738Z,95302.69
2019-04-30T22:18:47.832Z,95279.03
2019-04-30T22:21:18.138Z,95318.16
2019-04-30T22:23:48.459Z,95272.16
2019-04-30T22:26:18.752Z,95260.75
2019-04-30T22:28:50.526Z,95260.44
2019-04-30T22:31:22.184Z,95226.15
2019-04-30T22:33:54.129Z,95230.70
2019-04-30T22:36:32.292Z,95199.58
2019-04-30T22:39:30.699Z,95168.77
2019-04-30T22:42:29.745Z,95131.88
2019-04-30T22:45:01.536Z,95110.88
2019-04-30T22:47:32.153Z,95128.45
2019-04-30T22:50:02.425Z,95126.33
2019-04-30T22:52:32.808Z,95103.20
2019-04-30T22:55:03.113Z,95072.91
2019-04-30T22:57:33.425Z,95084.01
2019-04-30T23:00:04.587Z,95047.17
2019-04-30T23:02:52.147Z,95011.31
2019-04-30T23:05:24.236Z,95002.53
2019-04-30T23:08:01.858Z,95007.58
2019-04-30T23:10:32.311Z,95008.39
2019-04-30T23:13:02.712Z,95046.83
2019-04-30T23:15:33.662Z,94999.10
2019-04-30T23:18:04.033Z,94973.88
2019-04-30T23:20:34.420Z,94952.70
2019-04-30T23:23:04.795Z,94936.11
2019-04-30T23:25:35.436Z,95018.17
2019-04-30T23:28:07.743Z,94973.57
2019-04-30T23:30:40.966Z,94965.91
2019-04-30T23:33:16.052Z,94929.76
2019-04-30T23:35:48.432Z,94954.01
2019-04-30T23:38:18.706Z,94945.70
2019-04-30T23:40:52.792Z,94921.79
2019-04-30T23:43:23.095Z,94886.30
2019-04-30T23:45:53.376Z,94862.52
2019-04-30T23:48:24.566Z,94832.55
2019-04-30T23:50:57.522Z,94822.97
2019-04-30T23:53:28.159Z,94812.77
2019-04-30T23:55:58.709Z,94794.54
2019-04-30T23:58:29.145Z,94774.00
